Time;durP1;ratioP1;P1;durP2;ratioP2;P2;SDS_P1;SDS_P2;PMS_P1;PMS_P2;Temp;Humidity;BMP_temperature;BMP_pressure;BME280_temperature;BME280_humidity;BME280_pressure;Samples;Min_cycle;Max_cycle;Signal;HPM_P1;HPM_P2
2023/08/11 00:00:21;;;;;;;3.20;1.60;;;19.60;75.80;;;;;;5061219;28;20190;-88
2023/08/11 00:02:51;;;;;;;1.73;1.30;;;19.60;75.90;;;;;;5094912;28;20702;-89
2023/08/11 00:05:21;;;;;;;1.52;1.35;;;19.60;75.80;;;;;;5060485;28;20208;-88
2023/08/11 00:07:51;;;;;;;1.58;1.30;;;19.60;75.90;;;;;;5076758;28;20172;-89
2023/08/11 00:10:23;;;;;;;1.70;1.60;;;19.60;75.80;;;;;;5060489;28;20175;-88
2023/08/11 00:12:53;;;;;;;1.48;1.30;;;19.60;75.90;;;;;;5062855;28;20210;-89
2023/08/11 00:15:19;;;;;;;1.50;1.40;;;19.60;75.80;;;;;;5064703;28;20263;-88
2023/08/11 00:17:45;;;;;;;1.90;1.50;;;19.60;75.90;;;;;;5082035;28;20753;-87
2023/08/11 00:20:16;;;;;;;1.92;1.50;;;19.60;75.90;;;;;;5082554;28;20199;-89
2023/08/11 00:22:42;;;;;;;1.83;1.58;;;19.60;75.80;;;;;;5085513;28;20179;-89
2023/08/11 00:25:09;;;;;;;1.92;1.60;;;19.60;75.90;;;;;;5089541;28;20206;-88
2023/08/11 00:27:38;;;;;;;1.40;1.30;;;19.60;75.90;;;;;;5105822;28;20161;-88
2023/08/11 00:30:09;;;;;;;1.67;1.58;;;19.60;75.90;;;;;;5071429;28;20186;-89
2023/08/11 00:32:37;;;;;;;2.83;1.38;;;19.70;75.90;;;;;;5070761;28;20309;-88
2023/08/11 00:35:08;;;;;;;1.73;1.60;;;19.60;75.90;;;;;;5064272;28;20191;-89
2023/08/11 00:37:35;;;;;;;1.98;1.58;;;19.60;75.90;;;;;;5064559;28;20551;-89
2023/08/11 00:40:06;;;;;;;2.05;1.65;;;19.60;75.90;;;;;;5047384;28;20719;-88
2023/08/11 00:42:33;;;;;;;1.90;1.58;;;19.60;75.90;;;;;;5080772;28;20650;-89
2023/08/11 00:45:00;;;;;;;1.35;1.25;;;19.60;75.90;;;;;;5063440;28;21150;-87
2023/08/11 00:47:30;;;;;;;1.63;1.50;;;19.60;75.90;;;;;;5063874;28;20218;-89
2023/08/11 00:50:00;;;;;;;1.42;1.33;;;19.60;75.90;;;;;;5030678;28;20545;-88
2023/08/11 00:52:27;;;;;;;2.00;1.67;;;19.60;76.00;;;;;;5030746;28;20270;-90
2023/08/11 00:54:53;;;;;;;1.92;1.55;;;19.60;75.90;;;;;;5097109;28;20620;-88
2023/08/11 00:57:20;;;;;;;1.83;1.60;;;19.60;75.90;;;;;;5080237;28;20223;-89
2023/08/11 00:59:48;;;;;;;1.50;1.40;;;19.60;75.90;;;;;;5097002;28;20717;-87
2023/08/11 01:02:14;;;;;;;2.05;1.75;;;19.60;75.90;;;;;;5080325;28;20163;-88
2023/08/11 01:04:48;;;;;;;4.25;1.75;;;19.60;75.90;;;;;;5079827;28;20188;-88
2023/08/11 01:07:38;;;;;;;1.60;1.50;;;19.60;75.90;;;;;;5047416;28;20180;-90
2023/08/11 01:10:28;;;;;;;1.45;1.25;;;19.60;75.90;;;;;;5047607;28;20198;-89
2023/08/11 01:13:07;;;;;;;1.88;1.60;;;19.60;76.80;;;;;;5038845;28;20660;-90
2023/08/11 01:15:40;;;;;;;1.30;1.20;;;19.60;75.90;;;;;;5080683;28;20211;-89
2023/08/11 01:18:07;;;;;;;1.58;1.48;;;19.50;75.90;;;;;;5046930;28;20179;-88
2023/08/11 01:20:34;;;;;;;1.50;1.40;;;19.60;76.00;;;;;;5062719;28;20635;-89
2023/08/11 01:23:01;;;;;;;1.30;1.20;;;19.60;76.00;;;;;;5079368;28;20633;-89
2023/08/11 01:25:28;;;;;;;2.58;1.63;;;19.60;76.00;;;;;;5079673;28;20685;-89
2023/08/11 01:27:55;;;;;;;1.52;1.42;;;19.60;75.90;;;;;;5079730;28;20693;-88
2023/08/11 01:30:26;;;;;;;1.63;1.23;;;19.60;76.00;;;;;;5079623;28;20593;-89
2023/08/11 01:32:56;;;;;;;1.40;1.30;;;19.60;76.00;;;;;;5035510;28;20215;-88
2023/08/11 01:35:25;;;;;;;1.48;1.35;;;19.60;76.00;;;;;;5029726;28;20180;-89
2023/08/11 01:37:53;;;;;;;1.40;1.30;;;19.60;76.00;;;;;;5063143;28;20184;-89
2023/08/11 01:40:19;;;;;;;2.10;1.50;;;19.60;76.90;;;;;;5046314;28;20187;-89
2023/08/11 01:42:45;;;;;;;1.55;1.45;;;19.60;76.10;;;;;;5080305;28;20255;-90
2023/08/11 01:45:16;;;;;;;1.42;1.33;;;19.60;76.00;;;;;;5080323;28;20196;-88
2023/08/11 01:47:45;;;;;;;1.60;1.50;;;19.50;76.00;;;;;;5046229;28;20265;-88
2023/08/11 01:50:11;;;;;;;3.20;1.58;;;19.60;76.00;;;;;;5046409;28;20176;-87
2023/08/11 01:52:45;;;;;;;2.13;1.25;;;19.50;75.90;;;;;;5045791;28;20179;-88
2023/08/11 01:55:13;;;;;;;2.10;1.50;;;19.60;75.90;;;;;;5063998;28;20192;-88
2023/08/11 01:57:43;;;;;;;1.50;1.40;;;19.60;76.00;;;;;;5097091;28;20227;-87
2023/08/11 02:00:16;;;;;;;2.47;1.48;;;19.60;76.10;;;;;;5046121;28;20183;-88
2023/08/11 02:02:43;;;;;;;1.48;1.38;;;19.60;76.00;;;;;;5046554;28;20180;-89
2023/08/11 02:05:11;;;;;;;1.50;1.40;;;19.60;76.00;;;;;;5079901;28;20517;-88
2023/08/11 02:07:41;;;;;;;1.58;1.48;;;19.60;76.10;;;;;;5079808;28;20161;-88
2023/08/11 02:10:09;;;;;;;1.30;1.17;;;19.60;76.10;;;;;;5029447;28;20176;-87
2023/08/11 02:12:38;;;;;;;1.67;1.42;;;19.50;76.00;;;;;;5096696;28;20174;-88
2023/08/11 02:15:06;;;;;;;1.67;1.58;;;19.60;76.10;;;;;;5062637;28;20273;-88
2023/08/11 02:17:33;;;;;;;1.90;1.48;;;19.50;76.00;;;;;;5045828;28;20175;-88
2023/08/11 02:20:09;;;;;;;1.65;1.40;;;19.60;76.00;;;;;;5062331;28;20190;-89
2023/08/11 02:22:35;;;;;;;2.63;1.70;;;19.60;76.00;;;;;;5066126;28;20262;-88
2023/08/11 02:25:02;;;;;;;1.50;1.40;;;19.60;76.00;;;;;;5096427;28;20274;-89
2023/08/11 02:27:27;;;;;;;2.85;1.50;;;19.60;75.90;;;;;;5079770;28;20603;-89
2023/08/11 02:29:57;;;;;;;1.33;1.23;;;19.60;76.00;;;;;;5079439;28;20185;-89
2023/08/11 02:32:27;;;;;;;1.35;1.25;;;19.60;76.00;;;;;;5028786;28;20172;-89
2023/08/11 02:34:53;;;;;;;1.65;1.55;;;19.60;76.00;;;;;;5044470;28;20187;-88
2023/08/11 02:37:23;;;;;;;2.42;1.70;;;19.50;76.00;;;;;;5096276;28;20178;-89
2023/08/11 02:39:50;;;;;;;1.45;1.35;;;19.50;76.40;;;;;;5028733;28;20195;-89
2023/08/11 02:42:15;;;;;;;1.83;1.50;;;19.50;76.00;;;;;;5096273;28;20156;-90
2023/08/11 02:44:43;;;;;;;1.67;1.42;;;19.60;76.10;;;;;;5096309;28;20194;-89
2023/08/11 02:47:11;;;;;;;1.95;1.60;;;19.60;76.10;;;;;;5028394;28;20187;-88
2023/08/11 02:49:41;;;;;;;1.35;1.25;;;19.50;76.00;;;;;;5061729;28;20183;-89
2023/08/11 02:52:10;;;;;;;1.50;1.40;;;19.60;76.10;;;;;;5028808;28;20180;-88
2023/08/11 02:54:37;;;;;;;1.48;1.30;;;19.60;76.10;;;;;;5045069;28;20653;-89
2023/08/11 02:57:03;;;;;;;2.17;1.85;;;19.50;76.10;;;;;;5095851;28;20216;-89
2023/08/11 02:59:30;;;;;;;1.77;1.67;;;19.60;76.10;;;;;;5078977;28;20212;-89
2023/08/11 03:01:59;;;;;;;1.50;1.40;;;19.60;76.10;;;;;;5061666;28;20188;-89
2023/08/11 03:04:29;;;;;;;1.60;1.40;;;19.60;76.10;;;;;;5096027;28;20180;-88
2023/08/11 03:07:00;;;;;;;1.77;1.50;;;19.60;76.10;;;;;;5062041;28;20176;-89
2023/08/11 03:09:27;;;;;;;1.95;1.55;;;19.50;76.10;;;;;;5061219;28;20238;-87
2023/08/11 03:11:55;;;;;;;1.65;1.30;;;19.50;76.10;;;;;;5060821;28;20180;-90
2023/08/11 03:14:25;;;;;;;2.13;1.35;;;19.50;76.10;;;;;;5095047;28;20263;-88
2023/08/11 03:16:52;;;;;;;1.50;1.40;;;19.50;76.00;;;;;;5077989;28;20191;-90
2023/08/11 03:19:19;;;;;;;2.20;1.25;;;19.50;76.00;;;;;;5077935;28;20558;-89
2023/08/11 03:21:46;;;;;;;1.48;1.38;;;19.60;76.00;;;;;;5077931;28;20321;-87
2023/08/11 03:24:15;;;;;;;1.88;1.50;;;19.60;76.00;;;;;;5078625;28;20188;-88
2023/08/11 03:26:41;;;;;;;2.28;1.30;;;19.60;76.10;;;;;;5078032;28;20176;-90
2023/08/11 03:29:09;;;;;;;1.83;1.65;;;19.60;76.00;;;;;;5112596;28;20152;-89
2023/08/11 03:31:37;;;;;;;1.75;1.40;;;19.50;76.00;;;;;;5077744;28;20182;-89
2023/08/11 03:34:07;;;;;;;1.63;1.38;;;19.60;76.00;;;;;;5060815;28;20539;-89
2023/08/11 03:36:37;;;;;;;2.83;1.52;;;19.50;76.00;;;;;;5060804;28;20180;-88
2023/08/11 03:39:06;;;;;;;1.75;1.42;;;19.60;76.00;;;;;;5077701;28;20191;-89
2023/08/11 03:41:31;;;;;;;1.80;1.55;;;19.60;76.00;;;;;;5077785;28;20203;-88
2023/08/11 03:43:57;;;;;;;1.52;1.42;;;19.70;76.10;;;;;;5095237;28;20245;-88
2023/08/11 03:46:27;;;;;;;2.42;1.60;;;19.60;76.10;;;;;;5095078;28;20667;-88
2023/08/11 03:48:53;;;;;;;1.45;1.35;;;19.60;76.10;;;;;;5077419;28;20252;-89
2023/08/11 03:51:23;;;;;;;1.55;1.45;;;19.50;76.00;;;;;;5077409;28;20184;-88
2023/08/11 03:53:50;;;;;;;1.60;1.50;;;19.60;76.10;;;;;;5060618;28;20575;-89
2023/08/11 03:56:15;;;;;;;1.70;1.30;;;19.60;76.10;;;;;;5094648;28;20650;-88
2023/08/11 03:58:46;;;;;;;1.48;1.38;;;19.60;76.10;;;;;;5061322;28;20167;-87
2023/08/11 04:01:14;;;;;;;2.35;1.58;;;19.60;76.10;;;;;;5044165;28;20187;-87
2023/08/11 04:03:41;;;;;;;1.40;1.30;;;19.60;76.10;;;;;;5077675;28;20198;-88
2023/08/11 04:06:06;;;;;;;1.90;1.40;;;19.60;76.10;;;;;;5077740;28;20258;-87
2023/08/11 04:08:32;;;;;;;1.52;1.42;;;19.60;76.10;;;;;;5094795;28;20571;-89
2023/08/11 04:10:58;;;;;;;1.60;1.50;;;19.50;76.10;;;;;;5094931;28;20599;-87
2023/08/11 04:13:24;;;;;;;1.42;1.30;;;19.60;76.20;;;;;;5094896;28;20166;-89
2023/08/11 04:15:50;;;;;;;1.33;1.23;;;19.50;76.20;;;;;;5112933;28;20205;-89
2023/08/11 04:18:17;;;;;;;2.05;1.42;;;19.60;76.20;;;;;;5095209;28;20183;-88
2023/08/11 04:20:43;;;;;;;1.55;1.45;;;19.50;76.10;;;;;;5095092;28;20231;-90
2023/08/11 04:23:10;;;;;;;1.33;1.23;;;19.50;76.10;;;;;;5094946;28;20607;-90
2023/08/11 04:25:37;;;;;;;1.98;1.75;;;19.50;76.20;;;;;;5077741;28;20199;-88
2023/08/11 04:28:06;;;;;;;1.90;1.48;;;19.50;76.20;;;;;;5061341;28;20160;-88
2023/08/11 04:30:33;;;;;;;1.83;1.63;;;19.50;76.30;;;;;;5060356;28;20646;-90
2023/08/11 04:32:59;;;;;;;1.60;1.27;;;19.60;76.30;;;;;;5094651;28;20239;-88
2023/08/11 04:35:25;;;;;;;2.17;1.60;;;19.50;76.10;;;;;;5061016;28;20160;-87
2023/08/11 04:37:52;;;;;;;1.50;1.40;;;19.50;76.20;;;;;;5077994;28;20171;-88
2023/08/11 04:40:21;;;;;;;2.10;1.50;;;19.50;76.20;;;;;;5043537;28;20710;-89
2023/08/11 04:42:48;;;;;;;1.63;1.52;;;19.50;76.20;;;;;;5094889;28;20602;-90
2023/08/11 04:45:15;;;;;;;1.60;1.38;;;19.50;76.10;;;;;;5077461;28;20211;-89
2023/08/11 04:47:44;;;;;;;1.52;1.42;;;19.50;76.20;;;;;;5061045;28;20152;-89
2023/08/11 04:50:11;;;;;;;2.65;1.58;;;19.50;76.20;;;;;;5043976;28;20180;-89
2023/08/11 04:52:40;;;;;;;2.10;1.60;;;19.50;76.30;;;;;;5036552;28;20177;-88
2023/08/11 04:55:08;;;;;;;1.88;1.77;;;19.50;76.30;;;;;;5020070;28;20227;-89
2023/08/11 04:57:35;;;;;;;1.42;1.33;;;19.50;76.30;;;;;;5053130;28;20683;-89
2023/08/11 05:00:03;;;;;;;1.60;1.50;;;19.50;76.30;;;;;;5056383;28;20181;-89
2023/08/11 05:02:31;;;;;;;1.35;1.25;;;19.50;76.20;;;;;;5040189;28;20200;-89
2023/08/11 05:05:00;;;;;;;1.48;1.27;;;19.50;76.30;;;;;;5057155;28;20185;-89
2023/08/11 05:07:28;;;;;;;1.33;1.20;;;19.50;76.30;;;;;;5022588;28;20648;-88
2023/08/11 05:09:56;;;;;;;1.40;1.30;;;19.50;76.20;;;;;;5023633;28;20212;-87
2023/08/11 05:12:25;;;;;;;1.92;1.45;;;19.50;76.30;;;;;;5039738;28;20185;-89
2023/08/11 05:14:51;;;;;;;2.10;1.42;;;19.50;77.00;;;;;;5006647;28;20247;-88
2023/08/11 05:17:19;;;;;;;1.25;1.15;;;19.50;76.20;;;;;;5039924;28;20600;-88
2023/08/11 05:19:46;;;;;;;1.60;1.50;;;19.50;76.30;;;;;;5023190;28;20231;-89
2023/08/11 05:22:16;;;;;;;1.65;1.45;;;19.50;77.10;;;;;;5006644;28;20181;-90
2023/08/11 05:24:42;;;;;;;1.40;1.30;;;19.50;76.30;;;;;;5039700;28;20255;-90
2023/08/11 05:27:11;;;;;;;1.60;1.20;;;19.50;77.10;;;;;;5039747;28;20169;-90
2023/08/11 05:29:45;;;;;;;1.67;1.20;;;19.50;76.30;;;;;;5006908;28;20181;-89
2023/08/11 05:32:12;;;;;;;1.67;1.58;;;19.50;76.30;;;;;;5023749;28;20264;-89
2023/08/11 05:34:40;;;;;;;1.73;1.50;;;19.50;76.30;;;;;;5056165;28;20248;-88
2023/08/11 05:37:07;;;;;;;1.55;1.45;;;19.60;76.40;;;;;;5020301;28;20180;-89
2023/08/11 05:39:35;;;;;;;1.80;1.60;;;19.50;76.30;;;;;;5063021;28;20183;-88
2023/08/11 05:42:00;;;;;;;1.58;1.48;;;19.50;76.30;;;;;;5046454;28;20180;-87
2023/08/11 05:44:27;;;;;;;1.27;1.17;;;19.50;76.30;;;;;;5080262;28;20245;-89
2023/08/11 05:46:57;;;;;;;1.40;1.30;;;19.60;76.40;;;;;;5062847;28;20191;-90
2023/08/11 05:49:24;;;;;;;1.42;1.33;;;19.60;76.50;;;;;;5062860;28;20190;-90
2023/08/11 05:51:49;;;;;;;1.30;1.17;;;19.60;76.40;;;;;;5080240;28;20212;-88
2023/08/11 05:54:15;;;;;;;1.45;1.30;;;19.60;76.40;;;;;;5097256;28;20217;-87
2023/08/11 05:56:41;;;;;;;1.40;1.30;;;19.60;76.60;;;;;;5096939;28;20232;-88
2023/08/11 05:59:07;;;;;;;2.25;1.30;;;19.60;76.80;;;;;;5079978;28;20179;-89
2023/08/11 06:01:34;;;;;;;1.48;1.10;;;19.50;76.80;;;;;;5079959;28;20160;-89
2023/08/11 06:04:07;;;;;;;1.20;1.10;;;19.50;76.90;;;;;;5080905;28;20587;-89
2023/08/11 06:06:33;;;;;;;3.03;1.20;;;19.60;77.10;;;;;;5046096;28;20187;-89
2023/08/11 06:08:59;;;;;;;1.20;1.10;;;19.40;77.10;;;;;;5080347;28;20160;-88
2023/08/11 06:11:25;;;;;;;1.40;1.30;;;19.40;76.90;;;;;;5096910;28;20233;-90
2023/08/11 06:13:57;;;;;;;1.83;0.98;;;19.50;77.30;;;;;;5097962;28;20157;-89
2023/08/11 06:16:28;;;;;;;1.40;1.30;;;19.50;77.30;;;;;;5064022;28;20283;-89
2023/08/11 06:18:58;;;;;;;1.15;1.05;;;19.50;77.50;;;;;;5046723;28;20175;-89
2023/08/11 06:21:24;;;;;;;1.20;1.10;;;19.50;77.70;;;;;;5047039;28;20683;-89
2023/08/11 06:23:50;;;;;;;1.92;1.10;;;19.40;77.80;;;;;;5098155;28;20187;-89
2023/08/11 06:26:16;;;;;;;1.10;1.00;;;19.40;77.90;;;;;;5097728;28;20164;-89
2023/08/11 06:28:42;;;;;;;1.30;1.10;;;19.40;78.10;;;;;;5098268;28;20197;-89
2023/08/11 06:31:10;;;;;;;1.20;1.10;;;19.40;78.10;;;;;;5081556;28;20255;-89
2023/08/11 06:33:39;;;;;;;0.80;0.80;;;19.40;78.20;;;;;;5081398;28;20164;-89
2023/08/11 06:36:05;;;;;;;1.23;1.05;;;19.40;78.40;;;;;;5046897;28;20646;-89
2023/08/11 06:38:32;;;;;;;1.52;1.10;;;19.30;78.40;;;;;;5081387;28;20254;-89
2023/08/11 06:40:58;;;;;;;1.17;1.08;;;19.30;78.40;;;;;;5081249;28;20164;-89
2023/08/11 06:43:27;;;;;;;1.63;1.20;;;19.30;78.50;;;;;;5080150;28;20620;-90
2023/08/11 06:46:05;;;;;;;;;;;;;;;;;;;;;
2023/08/11 06:48:36;;;;;;;1.00;1.00;;;19.30;78.80;;;;;;5035114;28;20183;-89
2023/08/11 06:51:04;;;;;;;1.10;0.95;;;19.30;78.90;;;;;;5050428;28;20202;-89
2023/08/11 06:53:34;;;;;;;1.35;0.93;;;19.30;78.90;;;;;;5067075;28;20279;-89
2023/08/11 06:55:59;;;;;;;1.17;1.08;;;19.30;78.90;;;;;;5065505;28;20216;-89
2023/08/11 06:58:29;;;;;;;0.85;0.82;;;19.30;78.90;;;;;;5049701;28;20164;-88
2023/08/11 07:00:56;;;;;;;1.10;1.05;;;19.30;79.00;;;;;;5065608;28;20181;-88
2023/08/11 07:03:23;;;;;;;1.13;1.02;;;19.30;79.10;;;;;;5063303;28;20902;-89
2023/08/11 07:05:52;;;;;;;1.00;1.00;;;19.30;79.20;;;;;;5058460;28;20559;-89
2023/08/11 07:08:20;;;;;;;1.10;1.00;;;19.30;79.30;;;;;;5059072;28;20546;-88
2023/08/11 07:10:49;;;;;;;1.02;0.93;;;19.20;79.40;;;;;;5044918;28;20267;-89
2023/08/11 07:13:19;;;;;;;0.90;0.80;;;19.30;79.40;;;;;;5077610;28;20152;-89
2023/08/11 07:15:45;;;;;;;0.90;0.90;;;19.30;79.60;;;;;;5042247;28;20260;-88
2023/08/11 07:18:11;;;;;;;1.10;1.00;;;19.30;79.60;;;;;;5077850;28;20188;-88
2023/08/11 07:20:41;;;;;;;1.00;0.90;;;19.30;79.70;;;;;;5093252;28;20180;-90
2023/08/11 07:23:08;;;;;;;1.00;0.90;;;19.30;79.70;;;;;;5017691;28;20256;-89
2023/08/11 07:25:34;;;;;;;0.98;0.73;;;19.30;79.90;;;;;;5018049;28;20260;-89
2023/08/11 07:28:04;;;;;;;0.95;0.90;;;19.30;79.90;;;;;;5034399;28;20671;-89
2023/08/11 07:30:37;;;;;;;0.85;0.85;;;19.30;79.80;;;;;;4985520;28;20227;-89
2023/08/11 07:33:06;;;;;;;1.15;0.88;;;19.30;80.00;;;;;;5019278;28;20221;-89
2023/08/11 07:35:38;;;;;;;1.02;0.93;;;19.40;80.00;;;;;;5003063;28;20715;-89
2023/08/11 07:38:14;;;;;;;1.15;1.00;;;19.30;80.00;;;;;;4978908;28;20185;-89
2023/08/11 07:41:07;;;;;;;1.05;0.95;;;19.30;80.00;;;;;;4996596;28;20183;-89
2023/08/11 07:43:42;;;;;;;0.70;0.70;;;19.30;79.90;;;;;;4937911;29;20250;-89
2023/08/11 07:46:16;;;;;;;0.73;0.73;;;19.30;79.80;;;;;;4923440;29;20177;-89
2023/08/11 07:48:45;;;;;;;0.70;0.70;;;19.30;80.00;;;;;;4922025;29;20619;-89
2023/08/11 07:51:19;;;;;;;0.80;0.80;;;19.30;80.00;;;;;;4916290;29;20950;-89
2023/08/11 07:54:00;;;;;;;0.80;0.80;;;19.30;80.00;;;;;;4975696;28;20219;-89
2023/08/11 07:56:26;;;;;;;0.80;0.80;;;19.30;80.00;;;;;;4997687;28;20668;-89
2023/08/11 07:59:02;;;;;;;0.73;0.70;;;19.30;80.00;;;;;;4959942;28;20604;-89
2023/08/11 08:01:31;;;;;;;1.13;0.80;;;19.40;79.90;;;;;;4943685;28;20547;-89
2023/08/11 08:04:00;;;;;;;1.00;0.95;;;19.40;79.90;;;;;;4936679;29;20209;-88
2023/08/11 08:06:32;;;;;;;0.75;0.70;;;19.40;79.80;;;;;;4968759;28;20181;-89
2023/08/11 08:09:02;;;;;;;0.90;0.90;;;19.40;79.80;;;;;;4949766;29;20202;-89
2023/08/11 08:11:29;;;;;;;1.00;1.00;;;19.40;79.70;;;;;;4934627;29;20178;-89
2023/08/11 08:13:58;;;;;;;3.47;1.15;;;19.40;79.60;;;;;;4947973;28;20214;-89
2023/08/11 08:16:24;;;;;;;0.80;0.80;;;19.40;79.60;;;;;;4993017;28;20192;-89
2023/08/11 08:18:50;;;;;;;1.50;0.80;;;19.40;79.50;;;;;;5014851;28;20190;-89
2023/08/11 08:21:25;;;;;;;1.35;0.82;;;19.40;79.60;;;;;;5014573;28;20229;-88
2023/08/11 08:23:51;;;;;;;1.60;0.90;;;19.40;79.80;;;;;;4997956;28;20256;-89
2023/08/11 08:26:24;;;;;;;2.92;1.10;;;19.30;79.70;;;;;;5015470;28;20183;-89
2023/08/11 08:28:54;;;;;;;1.35;0.95;;;19.40;79.80;;;;;;4984173;28;20189;-88
2023/08/11 08:31:30;;;;;;;2.47;0.80;;;19.40;79.90;;;;;;5000076;28;20205;-88
2023/08/11 08:33:56;;;;;;;2.92;0.85;;;19.50;80.10;;;;;;5007288;28;20640;-89
2023/08/11 08:36:26;;;;;;;1.23;0.82;;;19.40;80.10;;;;;;5043948;28;20612;-88
2023/08/11 08:38:59;;;;;;;3.40;0.80;;;19.40;80.20;;;;;;5007834;28;20189;-88
2023/08/11 08:41:29;;;;;;;1.15;0.88;;;19.50;80.10;;;;;;5021079;28;20186;-88
2023/08/11 08:44:00;;;;;;;3.75;0.93;;;19.50;80.00;;;;;;5020346;28;20217;-89
2023/08/11 08:46:30;;;;;;;4.97;0.70;;;19.50;80.00;;;;;;5019875;28;20204;-89
2023/08/11 08:49:13;;;;;;;2.22;0.77;;;19.50;80.00;;;;;;5037913;28;20159;-89
2023/08/11 08:51:45;;;;;;;4.18;0.95;;;19.50;80.00;;;;;;5033878;28;20181;-89
2023/08/11 08:54:17;;;;;;;2.75;0.80;;;19.50;79.80;;;;;;4993207;28;20268;-88
2023/08/11 08:56:46;;;;;;;4.75;1.02;;;19.50;79.70;;;;;;4981034;28;20234;-88
2023/08/11 08:59:15;;;;;;;6.15;0.82;;;19.50;79.60;;;;;;4965572;28;20187;-88
2023/08/11 09:01:44;;;;;;;4.75;1.02;;;19.60;79.60;;;;;;4965785;28;20246;-88
2023/08/11 09:04:12;;;;;;;2.40;1.02;;;19.60;79.50;;;;;;4981179;28;20903;-88
2023/08/11 09:06:40;;;;;;;2.30;0.93;;;19.60;79.50;;;;;;4963314;28;20202;-88
2023/08/11 09:09:08;;;;;;;3.53;0.80;;;19.60;79.40;;;;;;4946593;28;20180;-88
2023/08/11 09:11:39;;;;;;;1.13;0.90;;;19.60;79.40;;;;;;4946978;28;20186;-89
2023/08/11 09:14:18;;;;;;;2.30;0.68;;;19.60;79.20;;;;;;4963883;28;20208;-88
2023/08/11 09:16:45;;;;;;;2.25;0.90;;;19.70;79.30;;;;;;5004656;28;20182;-88
2023/08/11 09:19:16;;;;;;;4.20;1.13;;;19.60;79.10;;;;;;5023493;28;20779;-88
2023/08/11 09:21:43;;;;;;;3.72;0.80;;;19.60;79.00;;;;;;5006016;28;20225;-88
2023/08/11 09:24:11;;;;;;;3.63;0.90;;;19.70;79.00;;;;;;5039043;28;20182;-88
2023/08/11 09:26:37;;;;;;;2.05;0.70;;;19.70;79.10;;;;;;5054662;28;20212;-89
2023/08/11 09:29:06;;;;;;;1.48;0.70;;;19.60;78.90;;;;;;5054142;28;20182;-88
2023/08/11 09:31:34;;;;;;;4.65;0.90;;;19.70;79.00;;;;;;5037452;28;20189;-88
2023/08/11 09:34:10;;;;;;;2.92;0.80;;;19.60;78.90;;;;;;5019876;28;20190;-89
2023/08/11 09:36:36;;;;;;;2.35;0.80;;;19.70;78.80;;;;;;5036299;28;20158;-88
2023/08/11 09:39:05;;;;;;;1.35;0.73;;;19.70;78.70;;;;;;5019360;28;20584;-89
2023/08/11 09:41:35;;;;;;;2.03;0.80;;;19.70;78.50;;;;;;5035783;28;20592;-89
2023/08/11 09:44:01;;;;;;;1.00;0.60;;;19.70;78.40;;;;;;5019752;28;20206;-89
2023/08/11 09:46:27;;;;;;;3.47;1.00;;;19.70;78.40;;;;;;5035882;28;20224;-89
2023/08/11 09:48:56;;;;;;;1.45;0.95;;;19.70;78.40;;;;;;5115716;28;20152;-89
2023/08/11 09:51:23;;;;;;;1.98;0.90;;;19.70;78.50;;;;;;5046044;28;20184;-89
2023/08/11 09:53:53;;;;;;;2.20;0.82;;;19.60;78.50;;;;;;5080263;28;20180;-89
2023/08/11 09:56:18;;;;;;;2.65;0.80;;;19.70;78.50;;;;;;5042387;28;20252;-89
2023/08/11 09:58:47;;;;;;;3.05;0.80;;;19.70;78.60;;;;;;5060213;28;20172;-89
2023/08/11 10:01:15;;;;;;;6.72;0.80;;;19.70;78.60;;;;;;5075731;28;20188;-88
2023/08/11 10:03:44;;;;;;;1.45;0.88;;;19.60;78.60;;;;;;5075700;28;20181;-89
2023/08/11 10:06:19;;;;;;;1.00;0.80;;;19.70;78.60;;;;;;5009275;28;20180;-88
2023/08/11 10:08:49;;;;;;;1.30;0.90;;;19.70;78.60;;;;;;5093764;28;20156;-89
2023/08/11 10:11:15;;;;;;;1.55;0.70;;;19.70;78.50;;;;;;5026486;28;20176;-88
2023/08/11 10:13:46;;;;;;;1.83;0.88;;;19.70;78.40;;;;;;5059735;28;20278;-89
2023/08/11 10:16:14;;;;;;;0.90;0.70;;;19.70;78.40;;;;;;5059633;28;20176;-88
2023/08/11 10:18:42;;;;;;;0.80;0.70;;;19.70;78.30;;;;;;4982913;28;20210;-89
2023/08/11 10:21:09;;;;;;;0.93;0.73;;;19.70;78.50;;;;;;5015766;28;20206;-89
2023/08/11 10:23:41;;;;;;;0.90;0.75;;;19.70;78.50;;;;;;5014986;28;20174;-89
2023/08/11 10:26:09;;;;;;;1.20;0.82;;;19.70;78.50;;;;;;5015116;28;20187;-89
2023/08/11 10:28:34;;;;;;;1.27;0.40;;;19.70;79.20;;;;;;5031387;28;20631;-89
2023/08/11 10:31:06;;;;;;;0.70;0.70;;;19.80;78.30;;;;;;5015930;28;20174;-89
2023/08/11 10:33:33;;;;;;;1.02;0.65;;;19.70;78.10;;;;;;4992282;28;20646;-89
2023/08/11 10:36:03;;;;;;;2.40;0.80;;;19.70;78.90;;;;;;4992627;28;20242;-89
2023/08/11 10:38:33;;;;;;;3.08;0.73;;;19.70;78.00;;;;;;4946180;28;20188;-89
2023/08/11 10:41:03;;;;;;;1.65;0.75;;;19.70;78.00;;;;;;4995394;28;20219;-88
2023/08/11 10:43:32;;;;;;;1.10;0.70;;;19.70;78.00;;;;;;4995509;28;20176;-89
2023/08/11 10:46:26;;;;;;;1.65;0.60;;;19.90;78.10;;;;;;4998345;28;20172;-89
2023/08/11 10:49:20;;;;;;;1.05;0.90;;;19.80;77.80;;;;;;4984484;28;20183;-88
2023/08/11 10:51:50;;;;;;;1.88;0.70;;;19.80;77.80;;;;;;5015024;28;20182;-89
2023/08/11 10:54:41;;;;;;;3.55;0.77;;;19.80;77.80;;;;;;4995996;28;20183;-88
2023/08/11 10:57:09;;;;;;;1.02;0.60;;;19.70;77.80;;;;;;5004712;28;20306;-89
2023/08/11 10:59:37;;;;;;;1.48;0.95;;;19.80;77.70;;;;;;5012112;28;20619;-88
2023/08/11 11:02:07;;;;;;;1.60;0.77;;;19.80;77.60;;;;;;5011926;28;20174;-88
2023/08/11 11:04:33;;;;;;;0.88;0.65;;;19.80;77.60;;;;;;5017921;28;20198;-89
2023/08/11 11:07:00;;;;;;;0.93;0.70;;;19.80;77.60;;;;;;5017280;28;20217;-88
2023/08/11 11:09:27;;;;;;;1.48;0.75;;;19.80;77.60;;;;;;5035990;28;20166;-89
2023/08/11 11:12:00;;;;;;;0.98;0.80;;;19.90;77.60;;;;;;5018411;28;20268;-89
2023/08/11 11:14:30;;;;;;;1.52;0.70;;;19.90;77.60;;;;;;5035045;28;20216;-89
2023/08/11 11:16:58;;;;;;;1.02;0.80;;;19.90;77.60;;;;;;5001698;28;20654;-89
2023/08/11 11:19:30;;;;;;;0.63;0.63;;;19.90;77.40;;;;;;5019485;28;20188;-89
2023/08/11 11:22:01;;;;;;;0.73;0.60;;;19.90;77.50;;;;;;5018533;28;20212;-89
2023/08/11 11:24:34;;;;;;;0.57;0.57;;;19.90;77.20;;;;;;5034689;28;20272;-88
2023/08/11 11:26:59;;;;;;;1.13;1.00;;;19.90;77.20;;;;;;5002480;28;20186;-89
2023/08/11 11:29:27;;;;;;;1.23;0.73;;;20.00;77.30;;;;;;5034327;28;20193;-88
2023/08/11 11:31:59;;;;;;;0.85;0.70;;;19.90;77.10;;;;;;5042790;28;20225;-88
2023/08/11 11:34:25;;;;;;;0.60;0.60;;;19.90;77.10;;;;;;5015852;28;20240;-88
2023/08/11 11:36:59;;;;;;;0.63;0.63;;;19.90;77.00;;;;;;5014653;28;20613;-89
2023/08/11 11:39:26;;;;;;;0.70;0.55;;;19.90;76.90;;;;;;4997975;28;20256;-88
2023/08/11 11:41:53;;;;;;;2.15;0.50;;;19.90;76.90;;;;;;5030758;28;20181;-89
2023/08/11 11:44:24;;;;;;;0.95;0.80;;;20.00;76.70;;;;;;5014342;28;20198;-89
2023/08/11 11:46:55;;;;;;;1.55;0.55;;;20.00;76.60;;;;;;5031056;28;20538;-89
2023/08/11 11:49:22;;;;;;;1.00;0.65;;;20.00;77.20;;;;;;5000387;28;20186;-88
2023/08/11 11:51:51;;;;;;;0.60;0.60;;;20.10;76.50;;;;;;5014726;28;20182;-88
2023/08/11 11:54:38;;;;;;;1.52;0.57;;;20.00;76.70;;;;;;4982859;28;20187;-90
2023/08/11 11:57:05;;;;;;;1.63;0.73;;;20.00;76.70;;;;;;5011346;28;20224;-88
2023/08/11 11:59:40;;;;;;;0.70;0.60;;;20.00;77.00;;;;;;5067012;28;20268;-88
2023/08/11 12:02:07;;;;;;;1.73;0.77;;;20.00;77.20;;;;;;5022163;28;20275;-88
2023/08/11 12:04:36;;;;;;;0.88;0.70;;;20.00;77.50;;;;;;5064642;28;20223;-88
2023/08/11 12:07:02;;;;;;;1.63;0.80;;;20.00;77.60;;;;;;5079412;28;20551;-89
2023/08/11 12:09:48;;;;;;;2.75;0.60;;;20.00;77.60;;;;;;5116929;28;20641;-88
2023/08/11 12:12:14;;;;;;;1.75;0.70;;;20.00;77.80;;;;;;5105276;27;20582;-89
2023/08/11 12:14:44;;;;;;;1.30;0.75;;;20.00;77.80;;;;;;5082685;28;20614;-89
2023/08/11 12:17:17;;;;;;;1.33;0.70;;;19.90;77.80;;;;;;5081839;28;20238;-90
2023/08/11 12:19:49;;;;;;;0.63;0.60;;;20.00;77.90;;;;;;5081515;28;20183;-89
2023/08/11 12:22:14;;;;;;;0.77;0.77;;;20.00;78.00;;;;;;5064735;28;20680;-90
2023/08/11 12:24:40;;;;;;;0.80;0.55;;;19.90;77.90;;;;;;5082540;28;20238;-89
2023/08/11 12:27:07;;;;;;;0.60;0.60;;;20.00;78.00;;;;;;5098651;28;20175;-88
2023/08/11 12:29:37;;;;;;;0.70;0.70;;;19.90;77.80;;;;;;5099172;28;20206;-88
2023/08/11 12:32:06;;;;;;;1.13;0.70;;;20.00;77.80;;;;;;5095362;28;20190;-89
2023/08/11 12:34:35;;;;;;;1.40;0.70;;;20.00;77.70;;;;;;5044260;28;20591;-90
2023/08/11 12:37:15;;;;;;;0.60;0.60;;;20.10;77.50;;;;;;5044025;28;20192;-90
2023/08/11 12:39:44;;;;;;;0.60;0.60;;;20.00;77.40;;;;;;5029132;28;20253;-89
2023/08/11 12:42:12;;;;;;;1.13;0.70;;;20.00;77.20;;;;;;5079525;28;20176;-89
2023/08/11 12:44:41;;;;;;;0.93;0.73;;;20.10;77.00;;;;;;5077125;28;20192;-89
2023/08/11 12:47:12;;;;;;;0.63;0.63;;;20.10;77.00;;;;;;5027014;28;20177;-89
2023/08/11 12:49:40;;;;;;;1.48;0.80;;;20.10;76.90;;;;;;5094235;28;20234;-89
2023/08/11 12:52:12;;;;;;;1.70;0.70;;;20.00;76.70;;;;;;5094230;28;20172;-89
2023/08/11 12:54:39;;;;;;;1.98;0.80;;;20.00;76.60;;;;;;5028418;28;20250;-88
2023/08/11 12:57:05;;;;;;;0.82;0.50;;;20.00;76.40;;;;;;5009756;28;20751;-89